PWSweather.com
Personal Weather Stations
Station Observations
GRACELEHAN
The Grace C. Lehan Memorial Weather Station, West Hartford, CT 06107

The Grace C. Lehan Memorial Weather StationWest Hartford, CT 06107

Lat: 41.745629, Lon: -72.7443516

Elevation: 136

Station Type: Davis Vantage Pro2 Plus

High Low Average
Temperature 72.1°F22.3°C 71.1°F21.7°C 71.6°F22.0°C
Dew Point 71.5°F21.9°C 70.2°F21.2°C 70.8°F21.6°C
Winds 5.0 mph 8.0 kmh Calm Calm Calm NECalm NE
Wind Gusts 7.0 mph11.3 kmh -- 2.0 mph3.2 kmh
Humidity 98% 96% 97%
Pressure 29.90 in1012.5 mb 29.88 in1011.9 mb -
Precipitation 0.00 in0.0 mm - -
Hour Temp Dew Point Humidity Winds Wind Gusts Pressure Precip Precip Rate Daily Precip Total
05:49 PM 71.6°F22.0°C 70.7°F21.5°C 97% 1.0 mph NE1.6 kmh NE 2.0 mph3.2 kmh 29.90 in1012.5 mb 0.02 in0.5 mm 0.02 in0.5 mm 0.02 in0.5 mm
05:50 PM 71.6°F22.0°C 70.7°F21.5°C 97% Calm Calm 2.0 mph3.2 kmh 29.90 in1012.5 mb 0.02 in0.5 mm 0.00 in0.0 mm 0.02 in0.5 mm
05:52 PM 71.6°F22.0°C 70.7°F21.5°C 97% Calm Calm 2.0 mph3.2 kmh 29.90 in1012.5 mb 0.02 in0.5 mm 0.00 in0.0 mm 0.02 in0.5 mm
05:54 PM 71.6°F22.0°C 70.7°F21.5°C 97% Calm Calm 2.0 mph3.2 kmh 29.90 in1012.5 mb 0.02 in0.5 mm 0.00 in0.0 mm 0.02 in0.5 mm
05:56 PM 71.6°F22.0°C 70.4°F21.3°C 96% 1.0 mph NE1.6 kmh NE 2.0 mph3.2 kmh 29.90 in1012.5 mb 0.02 in0.5 mm 0.00 in0.0 mm 0.02 in0.5 mm
05:58 PM 71.5°F21.9°C 70.3°F21.3°C 96% 1.0 mph NE1.6 kmh NE 7.0 mph11.3 kmh 29.90 in1012.5 mb 0.02 in0.5 mm 0.00 in0.0 mm 0.02 in0.5 mm
06:00 PM 71.5°F21.9°C 70.3°F21.3°C 96% Calm Calm 7.0 mph11.3 kmh 29.90 in1012.5 mb 0.02 in0.5 mm 0.00 in0.0 mm 0.02 in0.5 mm
06:02 PM 71.5°F21.9°C 70.3°F21.3°C 96% 4.0 mph NNE6.4 kmh NNE 4.0 mph6.4 kmh 29.90 in1012.5 mb 0.01 in0.3 mm 0.00 in0.0 mm 0.02 in0.5 mm
06:04 PM 71.5°F21.9°C 70.3°F21.3°C 96% 3.0 mph NE4.8 kmh NE 6.0 mph9.7 kmh 29.90 in1012.5 mb 0.01 in0.3 mm 0.00 in0.0 mm 0.02 in0.5 mm
06:06 PM 71.5°F21.9°C 70.3°F21.3°C 96% Calm Calm 6.0 mph9.7 kmh 29.89 in1012.2 mb 0.01 in0.3 mm 0.00 in0.0 mm 0.02 in0.5 mm
06:08 PM 71.5°F21.9°C 70.3°F21.3°C 96% 1.0 mph NE1.6 kmh NE 6.0 mph9.7 kmh 29.89 in1012.2 mb 0.01 in0.3 mm 0.00 in0.0 mm 0.02 in0.5 mm
06:10 PM 71.5°F21.9°C 70.3°F21.3°C 96% Calm Calm 6.0 mph9.7 kmh 29.89 in1012.2 mb 0.01 in0.3 mm 0.00 in0.0 mm 0.02 in0.5 mm
06:12 PM 71.5°F21.9°C 70.3°F21.3°C 96% Calm Calm 6.0 mph9.7 kmh 29.89 in1012.2 mb 0.01 in0.3 mm 0.00 in0.0 mm 0.02 in0.5 mm
06:14 PM 71.5°F21.9°C 70.3°F21.3°C 96% Calm Calm 6.0 mph9.7 kmh 29.89 in1012.2 mb 0.02 in0.5 mm 0.30 in7.6 mm 0.03 in0.8 mm
06:16 PM 71.5°F21.9°C 70.3°F21.3°C 96% Calm Calm 6.0 mph9.7 kmh 29.89 in1012.2 mb 0.02 in0.5 mm 0.00 in0.0 mm 0.03 in0.8 mm
06:18 PM 71.5°F21.9°C 70.3°F21.3°C 96% Calm Calm 6.0 mph9.7 kmh 29.89 in1012.2 mb 0.02 in0.5 mm 0.00 in0.0 mm 0.03 in0.8 mm
06:20 PM 71.5°F21.9°C 70.3°F21.3°C 96% Calm Calm 6.0 mph9.7 kmh 29.90 in1012.5 mb 0.02 in0.5 mm 0.00 in0.0 mm 0.03 in0.8 mm
06:22 PM 71.5°F21.9°C 70.3°F21.3°C 96% Calm Calm 6.0 mph9.7 kmh 29.90 in1012.5 mb 0.02 in0.5 mm 0.00 in0.0 mm 0.03 in0.8 mm
06:24 PM 71.5°F21.9°C 70.3°F21.3°C 96% Calm Calm 6.0 mph9.7 kmh 29.89 in1012.2 mb 0.02 in0.5 mm 0.00 in0.0 mm 0.03 in0.8 mm
06:26 PM 71.5°F21.9°C 70.3°F21.3°C 96% Calm Calm 6.0 mph9.7 kmh 29.89 in1012.2 mb 0.02 in0.5 mm 0.00 in0.0 mm 0.03 in0.8 mm
06:28 PM 71.5°F21.9°C 70.6°F21.4°C 97% Calm Calm 6.0 mph9.7 kmh 29.89 in1012.2 mb 0.02 in0.5 mm 0.00 in0.0 mm 0.03 in0.8 mm
06:30 PM 71.5°F21.9°C 70.6°F21.4°C 97% 5.0 mph NE8.0 kmh NE 6.0 mph9.7 kmh 29.89 in1012.2 mb 0.02 in0.5 mm 0.00 in0.0 mm 0.03 in0.8 mm
06:34 PM 71.5°F21.9°C 70.6°F21.4°C 97% Calm Calm 6.0 mph9.7 kmh 29.89 in1012.2 mb 0.02 in0.5 mm 0.00 in0.0 mm 0.03 in0.8 mm
06:36 PM 71.5°F21.9°C 70.6°F21.4°C 97% 2.0 mph NE3.2 kmh NE 6.0 mph9.7 kmh 29.89 in1012.2 mb 0.03 in0.8 mm 0.30 in7.6 mm 0.04 in1.0 mm
06:38 PM 71.5°F21.9°C 70.6°F21.4°C 97% Calm Calm 6.0 mph9.7 kmh 29.89 in1012.2 mb 0.03 in0.8 mm 0.00 in0.0 mm 0.04 in1.0 mm
06:40 PM 71.5°F21.9°C 70.6°F21.4°C 97% Calm Calm 6.0 mph9.7 kmh 29.89 in1012.2 mb 0.04 in1.0 mm 0.30 in7.6 mm 0.05 in1.3 mm
06:42 PM 71.5°F21.9°C 70.6°F21.4°C 97% Calm Calm 6.0 mph9.7 kmh 29.89 in1012.2 mb 0.04 in1.0 mm 0.00 in0.0 mm 0.05 in1.3 mm
06:44 PM 71.5°F21.9°C 70.6°F21.4°C 97% Calm Calm 6.0 mph9.7 kmh 29.89 in1012.2 mb 0.04 in1.0 mm 0.00 in0.0 mm 0.05 in1.3 mm
06:46 PM 71.5°F21.9°C 70.6°F21.4°C 97% Calm Calm 6.0 mph9.7 kmh 29.88 in1011.9 mb 0.04 in1.0 mm 0.00 in0.0 mm 0.05 in1.3 mm
06:48 PM 71.5°F21.9°C 70.6°F21.4°C 97% Calm Calm 6.0 mph9.7 kmh 29.88 in1011.9 mb 0.04 in1.0 mm 0.00 in0.0 mm 0.05 in1.3 mm
06:50 PM 71.5°F21.9°C 70.6°F21.4°C 97% Calm Calm 6.0 mph9.7 kmh 29.88 in1011.9 mb 0.04 in1.0 mm 0.00 in0.0 mm 0.05 in1.3 mm
06:52 PM 71.5°F21.9°C 70.6°F21.4°C 97% Calm Calm 6.0 mph9.7 kmh 29.88 in1011.9 mb 0.04 in1.0 mm 0.00 in0.0 mm 0.05 in1.3 mm
06:54 PM 71.5°F21.9°C 70.6°F21.4°C 97% Calm Calm 6.0 mph9.7 kmh 29.88 in1011.9 mb 0.05 in1.3 mm 0.30 in7.6 mm 0.06 in1.5 mm
06:56 PM 71.5°F21.9°C 70.6°F21.4°C 97% 3.0 mph NE4.8 kmh NE 6.0 mph9.7 kmh 29.88 in1011.9 mb 0.05 in1.3 mm 0.00 in0.0 mm 0.06 in1.5 mm
06:58 PM 71.5°F21.9°C 70.6°F21.4°C 97% Calm Calm 6.0 mph9.7 kmh 29.88 in1011.9 mb 0.05 in1.3 mm 0.00 in0.0 mm 0.06 in1.5 mm
07:00 PM 71.5°F21.9°C 70.6°F21.4°C 97% Calm Calm 6.0 mph9.7 kmh 29.88 in1011.9 mb 0.05 in1.3 mm 0.00 in0.0 mm 0.06 in1.5 mm
07:02 PM 71.5°F21.9°C 70.6°F21.4°C 97% 2.0 mph ENE3.2 kmh ENE 2.0 mph3.2 kmh 29.89 in1012.2 mb 0.05 in1.3 mm 0.00 in0.0 mm 0.06 in1.5 mm
07:04 PM 71.4°F21.9°C 70.5°F21.4°C 97% Calm Calm 5.0 mph8.0 kmh 29.88 in1011.9 mb 0.05 in1.3 mm 0.00 in0.0 mm 0.06 in1.5 mm
07:06 PM 71.4°F21.9°C 70.5°F21.4°C 97% Calm Calm 5.0 mph8.0 kmh 29.88 in1011.9 mb 0.06 in1.5 mm 0.30 in7.6 mm 0.07 in1.8 mm
07:08 PM 71.4°F21.9°C 70.5°F21.4°C 97% 4.0 mph E6.4 kmh E 5.0 mph8.0 kmh 29.88 in1011.9 mb 0.06 in1.5 mm 0.00 in0.0 mm 0.07 in1.8 mm
07:10 PM 71.4°F21.9°C 70.5°F21.4°C 97% 2.0 mph E3.2 kmh E 5.0 mph8.0 kmh 29.88 in1011.9 mb 0.07 in1.8 mm 0.30 in7.6 mm 0.08 in2.0 mm
07:12 PM 71.4°F21.9°C 70.5°F21.4°C 97% Calm Calm 5.0 mph8.0 kmh 29.88 in1011.9 mb 0.10 in2.5 mm 0.90 in22.9 mm 0.11 in2.8 mm
07:14 PM 71.4°F21.9°C 70.5°F21.4°C 97% Calm Calm 5.0 mph8.0 kmh 29.88 in1011.9 mb 0.11 in2.8 mm 0.30 in7.6 mm 0.12 in3.0 mm
07:16 PM 71.4°F21.9°C 70.5°F21.4°C 97% 3.0 mph E4.8 kmh E 5.0 mph8.0 kmh 29.88 in1011.9 mb 0.12 in3.0 mm 0.30 in7.6 mm 0.13 in3.3 mm
07:18 PM 71.4°F21.9°C 70.5°F21.4°C 97% 4.0 mph NE6.4 kmh NE 5.0 mph8.0 kmh 29.89 in1012.2 mb 0.13 in3.3 mm 0.30 in7.6 mm 0.14 in3.6 mm
07:20 PM 71.4°F21.9°C 70.5°F21.4°C 97% 1.0 mph E1.6 kmh E 5.0 mph8.0 kmh 29.89 in1012.2 mb 0.16 in4.1 mm 0.90 in22.9 mm 0.17 in4.3 mm
07:22 PM 71.4°F21.9°C 70.5°F21.4°C 97% 4.0 mph NE6.4 kmh NE 6.0 mph9.7 kmh 29.88 in1011.9 mb 0.19 in4.8 mm 0.90 in22.9 mm 0.20 in5.1 mm
07:24 PM 71.4°F21.9°C 70.5°F21.4°C 97% Calm Calm 6.0 mph9.7 kmh 29.88 in1011.9 mb 0.22 in5.6 mm 0.90 in22.9 mm 0.23 in5.8 mm
07:26 PM 71.3°F21.8°C 70.4°F21.3°C 97% 3.0 mph NE4.8 kmh NE 6.0 mph9.7 kmh 29.88 in1011.9 mb 0.24 in6.1 mm 0.60 in15.2 mm 0.25 in6.4 mm
07:28 PM 71.3°F21.8°C 70.4°F21.3°C 97% Calm Calm 6.0 mph9.7 kmh 29.88 in1011.9 mb 0.25 in6.4 mm 0.30 in7.6 mm 0.26 in6.6 mm
07:30 PM 71.3°F21.8°C 70.4°F21.3°C 97% Calm Calm 6.0 mph9.7 kmh 29.88 in1011.9 mb 0.25 in6.4 mm 0.00 in0.0 mm 0.26 in6.6 mm
07:34 PM 71.3°F21.8°C 70.4°F21.3°C 97% Calm Calm -- 29.88 in1011.9 mb 0.23 in5.8 mm 0.00 in0.0 mm 0.26 in6.6 mm
07:36 PM 71.3°F21.8°C 70.4°F21.3°C 97% Calm Calm 4.0 mph6.4 kmh 29.88 in1011.9 mb 0.23 in5.8 mm 0.00 in0.0 mm 0.26 in6.6 mm
07:38 PM 71.2°F21.8°C 70.3°F21.3°C 97% 5.0 mph ENE8.0 kmh ENE 5.0 mph8.0 kmh 29.88 in1011.9 mb 0.23 in5.8 mm 0.00 in0.0 mm 0.26 in6.6 mm
07:40 PM 71.2°F21.8°C 70.3°F21.3°C 97% Calm Calm 5.0 mph8.0 kmh 29.88 in1011.9 mb 0.23 in5.8 mm 0.00 in0.0 mm 0.26 in6.6 mm
07:42 PM 71.2°F21.8°C 70.3°F21.3°C 97% Calm Calm 5.0 mph8.0 kmh 29.88 in1011.9 mb 0.24 in6.1 mm 0.30 in7.6 mm 0.27 in6.9 mm
07:44 PM 71.2°F21.8°C 70.3°F21.3°C 97% 2.0 mph NE3.2 kmh NE 5.0 mph8.0 kmh 29.88 in1011.9 mb 0.24 in6.1 mm 0.00 in0.0 mm 0.27 in6.9 mm
07:46 PM 71.2°F21.8°C 70.3°F21.3°C 97% Calm Calm 5.0 mph8.0 kmh 29.88 in1011.9 mb 0.24 in6.1 mm 0.00 in0.0 mm 0.27 in6.9 mm
07:48 PM 71.2°F21.8°C 70.3°F21.3°C 97% Calm Calm 5.0 mph8.0 kmh 29.88 in1011.9 mb 0.24 in6.1 mm 0.00 in0.0 mm 0.27 in6.9 mm
07:50 PM 71.2°F21.8°C 70.3°F21.3°C 97% 2.0 mph NE3.2 kmh NE 5.0 mph8.0 kmh 29.88 in1011.9 mb 0.24 in6.1 mm 0.00 in0.0 mm 0.27 in6.9 mm
07:52 PM 71.2°F21.8°C 70.3°F21.3°C 97% Calm Calm 5.0 mph8.0 kmh 29.88 in1011.9 mb 0.25 in6.4 mm 0.30 in7.6 mm 0.28 in7.1 mm
07:54 PM 71.1°F21.7°C 70.2°F21.2°C 97% Calm Calm 5.0 mph8.0 kmh 29.88 in1011.9 mb 0.25 in6.4 mm 0.00 in0.0 mm 0.28 in7.1 mm
07:56 PM 71.2°F21.8°C 70.3°F21.3°C 97% Calm Calm 5.0 mph8.0 kmh 29.88 in1011.9 mb 0.25 in6.4 mm 0.00 in0.0 mm 0.28 in7.1 mm
07:58 PM 71.1°F21.7°C 70.2°F21.2°C 97% Calm Calm 5.0 mph8.0 kmh 29.88 in1011.9 mb 0.26 in6.6 mm 0.30 in7.6 mm 0.29 in7.4 mm
08:00 PM 71.2°F21.8°C 70.3°F21.3°C 97% Calm Calm 5.0 mph8.0 kmh 29.88 in1011.9 mb 0.26 in6.6 mm 0.00 in0.0 mm 0.29 in7.4 mm
08:02 PM 71.1°F21.7°C 70.2°F21.2°C 97% Calm Calm -- 29.88 in1011.9 mb 0.23 in5.8 mm 0.00 in0.0 mm 0.29 in7.4 mm
08:04 PM 71.1°F21.7°C 70.2°F21.2°C 97% Calm Calm -- 29.88 in1011.9 mb 0.24 in6.1 mm 0.30 in7.6 mm 0.30 in7.6 mm
08:06 PM 71.1°F21.7°C 70.2°F21.2°C 97% Calm Calm -- 29.88 in1011.9 mb 0.24 in6.1 mm 0.00 in0.0 mm 0.30 in7.6 mm
08:08 PM 71.1°F21.7°C 70.2°F21.2°C 97% 1.0 mph NE1.6 kmh NE 1.0 mph1.6 kmh 29.88 in1011.9 mb 0.24 in6.1 mm 0.00 in0.0 mm 0.30 in7.6 mm
08:10 PM 71.1°F21.7°C 70.2°F21.2°C 97% Calm Calm 3.0 mph4.8 kmh 29.88 in1011.9 mb 0.24 in6.1 mm 0.00 in0.0 mm 0.30 in7.6 mm
08:12 PM 71.1°F21.7°C 70.2°F21.2°C 97% Calm Calm 3.0 mph4.8 kmh 29.88 in1011.9 mb 0.24 in6.1 mm 0.00 in0.0 mm 0.30 in7.6 mm
08:14 PM 71.2°F21.8°C 70.3°F21.3°C 97% Calm Calm 3.0 mph4.8 kmh 29.89 in1012.2 mb 0.24 in6.1 mm 0.00 in0.0 mm 0.30 in7.6 mm
08:16 PM 71.1°F21.7°C 70.2°F21.2°C 97% Calm Calm 3.0 mph4.8 kmh 29.88 in1011.9 mb 0.25 in6.4 mm 0.30 in7.6 mm 0.31 in7.9 mm
08:18 PM 71.1°F21.7°C 70.2°F21.2°C 97% Calm Calm 3.0 mph4.8 kmh 29.89 in1012.2 mb 0.26 in6.6 mm 0.30 in7.6 mm 0.32 in8.1 mm
08:20 PM 71.2°F21.8°C 70.3°F21.3°C 97% 3.0 mph NE4.8 kmh NE 3.0 mph4.8 kmh 29.89 in1012.2 mb 0.26 in6.6 mm 0.00 in0.0 mm 0.32 in8.1 mm
08:22 PM 71.2°F21.8°C 70.3°F21.3°C 97% Calm Calm 3.0 mph4.8 kmh 29.88 in1011.9 mb 0.26 in6.6 mm 0.00 in0.0 mm 0.32 in8.1 mm
08:24 PM 71.2°F21.8°C 70.3°F21.3°C 97% Calm Calm 3.0 mph4.8 kmh 29.88 in1011.9 mb 0.26 in6.6 mm 0.00 in0.0 mm 0.32 in8.1 mm
08:26 PM 71.2°F21.8°C 70.3°F21.3°C 97% Calm Calm 3.0 mph4.8 kmh 29.88 in1011.9 mb 0.26 in6.6 mm 0.00 in0.0 mm 0.32 in8.1 mm
08:28 PM 71.2°F21.8°C 70.3°F21.3°C 97% Calm Calm 3.0 mph4.8 kmh 29.89 in1012.2 mb 0.26 in6.6 mm 0.00 in0.0 mm 0.32 in8.1 mm
08:30 PM 71.2°F21.8°C 70.3°F21.3°C 97% Calm Calm 3.0 mph4.8 kmh 29.89 in1012.2 mb 0.26 in6.6 mm 0.00 in0.0 mm 0.32 in8.1 mm
08:34 PM 71.2°F21.8°C 70.3°F21.3°C 97% Calm Calm 2.0 mph3.2 kmh 29.89 in1012.2 mb 0.06 in1.5 mm 0.00 in0.0 mm 0.32 in8.1 mm
08:36 PM 71.2°F21.8°C 70.3°F21.3°C 97% Calm Calm 2.0 mph3.2 kmh 29.89 in1012.2 mb 0.06 in1.5 mm 0.00 in0.0 mm 0.32 in8.1 mm
08:38 PM 71.2°F21.8°C 70.3°F21.3°C 97% Calm Calm 2.0 mph3.2 kmh 29.89 in1012.2 mb 0.06 in1.5 mm 0.00 in0.0 mm 0.32 in8.1 mm
08:40 PM 71.2°F21.8°C 70.3°F21.3°C 97% Calm Calm 2.0 mph3.2 kmh 29.89 in1012.2 mb 0.06 in1.5 mm 0.00 in0.0 mm 0.32 in8.1 mm
08:42 PM 71.3°F21.8°C 70.4°F21.3°C 97% Calm Calm 2.0 mph3.2 kmh 29.89 in1012.2 mb 0.06 in1.5 mm 0.00 in0.0 mm 0.32 in8.1 mm
08:44 PM 71.3°F21.8°C 70.4°F21.3°C 97% Calm Calm 2.0 mph3.2 kmh 29.89 in1012.2 mb 0.06 in1.5 mm 0.00 in0.0 mm 0.32 in8.1 mm
08:46 PM 71.2°F21.8°C 70.3°F21.3°C 97% Calm Calm 2.0 mph3.2 kmh 29.89 in1012.2 mb 0.06 in1.5 mm 0.00 in0.0 mm 0.32 in8.1 mm
08:48 PM 71.3°F21.8°C 70.4°F21.3°C 97% Calm Calm 2.0 mph3.2 kmh 29.89 in1012.2 mb 0.06 in1.5 mm 0.00 in0.0 mm 0.32 in8.1 mm
08:50 PM 71.3°F21.8°C 70.4°F21.3°C 97% Calm Calm 2.0 mph3.2 kmh 29.89 in1012.2 mb 0.06 in1.5 mm 0.00 in0.0 mm 0.32 in8.1 mm
08:52 PM 71.3°F21.8°C 70.4°F21.3°C 97% Calm Calm 2.0 mph3.2 kmh 29.89 in1012.2 mb 0.06 in1.5 mm 0.00 in0.0 mm 0.32 in8.1 mm
08:54 PM 71.3°F21.8°C 70.4°F21.3°C 97% Calm Calm 2.0 mph3.2 kmh 29.89 in1012.2 mb 0.06 in1.5 mm 0.00 in0.0 mm 0.32 in8.1 mm
08:56 PM 71.3°F21.8°C 70.4°F21.3°C 97% Calm Calm 3.0 mph4.8 kmh 29.89 in1012.2 mb 0.06 in1.5 mm 0.00 in0.0 mm 0.32 in8.1 mm
08:58 PM 71.3°F21.8°C 70.4°F21.3°C 97% Calm Calm 3.0 mph4.8 kmh 29.89 in1012.2 mb 0.06 in1.5 mm 0.00 in0.0 mm 0.32 in8.1 mm
09:00 PM 71.3°F21.8°C 70.4°F21.3°C 97% Calm Calm 3.0 mph4.8 kmh 29.89 in1012.2 mb 0.06 in1.5 mm 0.00 in0.0 mm 0.32 in8.1 mm
09:02 PM 71.3°F21.8°C 70.4°F21.3°C 97% Calm Calm -- 29.89 in1012.2 mb 0.03 in0.8 mm 0.00 in0.0 mm 0.32 in8.1 mm
09:04 PM 71.4°F21.9°C 70.5°F21.4°C 97% Calm Calm -- 29.89 in1012.2 mb 0.03 in0.8 mm 0.00 in0.0 mm 0.32 in8.1 mm
09:06 PM 71.4°F21.9°C 70.5°F21.4°C 97% Calm Calm -- 29.89 in1012.2 mb 0.03 in0.8 mm 0.00 in0.0 mm 0.32 in8.1 mm
09:08 PM 71.3°F21.8°C 70.4°F21.3°C 97% Calm Calm -- 29.89 in1012.2 mb 0.03 in0.8 mm 0.00 in0.0 mm 0.32 in8.1 mm
09:10 PM 71.3°F21.8°C 70.4°F21.3°C 97% Calm Calm -- 29.89 in1012.2 mb 0.03 in0.8 mm 0.00 in0.0 mm 0.32 in8.1 mm
09:12 PM 71.4°F21.9°C 70.5°F21.4°C 97% Calm Calm -- 29.89 in1012.2 mb 0.03 in0.8 mm 0.00 in0.0 mm 0.32 in8.1 mm
09:14 PM 71.3°F21.8°C 70.4°F21.3°C 97% Calm Calm -- 29.89 in1012.2 mb 0.03 in0.8 mm 0.00 in0.0 mm 0.32 in8.1 mm
09:16 PM 71.3°F21.8°C 70.4°F21.3°C 97% Calm Calm -- 29.89 in1012.2 mb 0.03 in0.8 mm 0.00 in0.0 mm 0.32 in8.1 mm
09:18 PM 71.4°F21.9°C 70.5°F21.4°C 97% Calm Calm -- 29.89 in1012.2 mb 0.03 in0.8 mm 0.00 in0.0 mm 0.32 in8.1 mm
09:20 PM 71.4°F21.9°C 70.5°F21.4°C 97% Calm Calm -- 29.89 in1012.2 mb 0.03 in0.8 mm 0.00 in0.0 mm 0.32 in8.1 mm
09:22 PM 71.4°F21.9°C 70.5°F21.4°C 97% Calm Calm -- 29.89 in1012.2 mb 0.03 in0.8 mm 0.00 in0.0 mm 0.32 in8.1 mm
09:24 PM 71.4°F21.9°C 70.5°F21.4°C 97% Calm Calm -- 29.89 in1012.2 mb 0.03 in0.8 mm 0.00 in0.0 mm 0.32 in8.1 mm
09:26 PM 71.4°F21.9°C 70.5°F21.4°C 97% Calm Calm -- 29.89 in1012.2 mb 0.03 in0.8 mm 0.00 in0.0 mm 0.32 in8.1 mm
09:28 PM 71.4°F21.9°C 70.5°F21.4°C 97% Calm Calm -- 29.89 in1012.2 mb 0.03 in0.8 mm 0.00 in0.0 mm 0.32 in8.1 mm
09:30 PM 71.4°F21.9°C 70.5°F21.4°C 97% Calm Calm -- 29.89 in1012.2 mb 0.03 in0.8 mm 0.00 in0.0 mm 0.32 in8.1 mm
09:34 PM 71.4°F21.9°C 70.5°F21.4°C 97% Calm Calm -- 29.89 in1012.2 mb 0.00 in0.0 mm 0.00 in0.0 mm 0.32 in8.1 mm
09:36 PM 71.4°F21.9°C 70.5°F21.4°C 97% Calm Calm -- 29.89 in1012.2 mb 0.00 in0.0 mm 0.00 in0.0 mm 0.32 in8.1 mm
09:38 PM 71.5°F21.9°C 70.6°F21.4°C 97% Calm Calm -- 29.89 in1012.2 mb 0.00 in0.0 mm 0.00 in0.0 mm 0.32 in8.1 mm
09:40 PM 71.5°F21.9°C 70.6°F21.4°C 97% Calm Calm -- 29.89 in1012.2 mb 0.00 in0.0 mm 0.00 in0.0 mm 0.32 in8.1 mm
09:42 PM 71.5°F21.9°C 70.6°F21.4°C 97% Calm Calm -- 29.89 in1012.2 mb 0.00 in0.0 mm 0.00 in0.0 mm 0.32 in8.1 mm
09:44 PM 71.5°F21.9°C 70.6°F21.4°C 97% Calm Calm -- 29.89 in1012.2 mb 0.00 in0.0 mm 0.00 in0.0 mm 0.32 in8.1 mm
09:46 PM 71.5°F21.9°C 70.6°F21.4°C 97% Calm Calm -- 29.89 in1012.2 mb 0.00 in0.0 mm 0.00 in0.0 mm 0.32 in8.1 mm
09:48 PM 71.5°F21.9°C 70.6°F21.4°C 97% Calm Calm 3.0 mph4.8 kmh 29.89 in1012.2 mb 0.00 in0.0 mm 0.00 in0.0 mm 0.32 in8.1 mm
09:50 PM 71.5°F21.9°C 70.6°F21.4°C 97% Calm Calm 3.0 mph4.8 kmh 29.89 in1012.2 mb 0.00 in0.0 mm 0.00 in0.0 mm 0.32 in8.1 mm
09:52 PM 71.5°F21.9°C 70.6°F21.4°C 97% Calm Calm 3.0 mph4.8 kmh 29.89 in1012.2 mb 0.00 in0.0 mm 0.00 in0.0 mm 0.32 in8.1 mm
09:54 PM 71.5°F21.9°C 70.6°F21.4°C 97% Calm Calm 3.0 mph4.8 kmh 29.89 in1012.2 mb 0.00 in0.0 mm 0.00 in0.0 mm 0.32 in8.1 mm
09:56 PM 71.5°F21.9°C 70.6°F21.4°C 97% Calm Calm 3.0 mph4.8 kmh 29.89 in1012.2 mb 0.00 in0.0 mm 0.00 in0.0 mm 0.32 in8.1 mm
09:58 PM 71.5°F21.9°C 70.6°F21.4°C 97% Calm Calm 3.0 mph4.8 kmh 29.89 in1012.2 mb 0.00 in0.0 mm 0.00 in0.0 mm 0.32 in8.1 mm
10:00 PM 71.5°F21.9°C 70.6°F21.4°C 97% Calm Calm 3.0 mph4.8 kmh 29.89 in1012.2 mb 0.00 in0.0 mm 0.00 in0.0 mm 0.32 in8.1 mm
10:02 PM 71.5°F21.9°C 70.6°F21.4°C 97% Calm Calm -- 29.89 in1012.2 mb 0.00 in0.0 mm 0.00 in0.0 mm 0.32 in8.1 mm
10:04 PM 71.5°F21.9°C 70.6°F21.4°C 97% Calm Calm -- 29.89 in1012.2 mb 0.00 in0.0 mm 0.00 in0.0 mm 0.32 in8.1 mm
10:06 PM 71.5°F21.9°C 70.6°F21.4°C 97% Calm Calm -- 29.89 in1012.2 mb 0.00 in0.0 mm 0.00 in0.0 mm 0.32 in8.1 mm
10:08 PM 71.5°F21.9°C 70.6°F21.4°C 97% Calm Calm -- 29.89 in1012.2 mb 0.00 in0.0 mm 0.00 in0.0 mm 0.32 in8.1 mm
10:10 PM 71.5°F21.9°C 70.6°F21.4°C 97% Calm Calm -- 29.89 in1012.2 mb 0.00 in0.0 mm 0.00 in0.0 mm 0.32 in8.1 mm
10:12 PM 71.5°F21.9°C 70.6°F21.4°C 97% Calm Calm -- 29.88 in1011.9 mb 0.00 in0.0 mm 0.00 in0.0 mm 0.32 in8.1 mm
10:14 PM 71.5°F21.9°C 70.6°F21.4°C 97% Calm Calm -- 29.88 in1011.9 mb 0.01 in0.3 mm 0.30 in7.6 mm 0.33 in8.4 mm
10:16 PM 71.5°F21.9°C 70.6°F21.4°C 97% Calm Calm -- 29.88 in1011.9 mb 0.01 in0.3 mm 0.00 in0.0 mm 0.33 in8.4 mm
10:18 PM 71.5°F21.9°C 70.6°F21.4°C 97% Calm Calm -- 29.89 in1012.2 mb 0.01 in0.3 mm 0.00 in0.0 mm 0.33 in8.4 mm
10:20 PM 71.6°F22.0°C 70.7°F21.5°C 97% Calm Calm -- 29.89 in1012.2 mb 0.01 in0.3 mm 0.00 in0.0 mm 0.33 in8.4 mm
10:22 PM 71.6°F22.0°C 70.7°F21.5°C 97% Calm Calm -- 29.89 in1012.2 mb 0.01 in0.3 mm 0.00 in0.0 mm 0.33 in8.4 mm
10:24 PM 71.6°F22.0°C 70.7°F21.5°C 97% Calm Calm -- 29.89 in1012.2 mb 0.01 in0.3 mm 0.00 in0.0 mm 0.33 in8.4 mm
10:26 PM 71.6°F22.0°C 70.7°F21.5°C 97% Calm Calm -- 29.89 in1012.2 mb 0.01 in0.3 mm 0.00 in0.0 mm 0.33 in8.4 mm
10:28 PM 71.6°F22.0°C 70.7°F21.5°C 97% Calm Calm -- 29.89 in1012.2 mb 0.01 in0.3 mm 0.00 in0.0 mm 0.33 in8.4 mm
10:30 PM 71.7°F22.1°C 70.8°F21.6°C 97% Calm Calm -- 29.89 in1012.2 mb 0.01 in0.3 mm 0.00 in0.0 mm 0.33 in8.4 mm
10:34 PM 71.7°F22.1°C 70.8°F21.6°C 97% Calm Calm -- 29.89 in1012.2 mb 0.01 in0.3 mm 0.00 in0.0 mm 0.33 in8.4 mm
10:36 PM 71.7°F22.1°C 70.8°F21.6°C 97% Calm Calm -- 29.89 in1012.2 mb 0.01 in0.3 mm 0.00 in0.0 mm 0.33 in8.4 mm
10:38 PM 71.7°F22.1°C 71.1°F21.7°C 98% Calm Calm -- 29.89 in1012.2 mb 0.01 in0.3 mm 0.00 in0.0 mm 0.33 in8.4 mm
10:40 PM 71.8°F22.1°C 71.2°F21.8°C 98% Calm Calm -- 29.88 in1011.9 mb 0.01 in0.3 mm 0.00 in0.0 mm 0.33 in8.4 mm
10:42 PM 71.8°F22.1°C 71.2°F21.8°C 98% Calm Calm -- 29.89 in1012.2 mb 0.01 in0.3 mm 0.00 in0.0 mm 0.33 in8.4 mm
10:44 PM 71.8°F22.1°C 71.2°F21.8°C 98% Calm Calm -- 29.88 in1011.9 mb 0.01 in0.3 mm 0.00 in0.0 mm 0.33 in8.4 mm
10:46 PM 71.8°F22.1°C 71.2°F21.8°C 98% Calm Calm -- 29.88 in1011.9 mb 0.01 in0.3 mm 0.00 in0.0 mm 0.33 in8.4 mm
10:48 PM 71.8°F22.1°C 71.2°F21.8°C 98% Calm Calm -- 29.88 in1011.9 mb 0.01 in0.3 mm 0.00 in0.0 mm 0.33 in8.4 mm
10:50 PM 71.8°F22.1°C 71.2°F21.8°C 98% Calm Calm -- 29.88 in1011.9 mb 0.01 in0.3 mm 0.00 in0.0 mm 0.33 in8.4 mm
10:52 PM 71.8°F22.1°C 71.2°F21.8°C 98% Calm Calm -- 29.88 in1011.9 mb 0.01 in0.3 mm 0.00 in0.0 mm 0.33 in8.4 mm
10:54 PM 71.9°F22.2°C 71.3°F21.8°C 98% Calm Calm -- 29.88 in1011.9 mb 0.01 in0.3 mm 0.00 in0.0 mm 0.33 in8.4 mm
10:56 PM 71.9°F22.2°C 71.3°F21.8°C 98% Calm Calm -- 29.89 in1012.2 mb 0.01 in0.3 mm 0.00 in0.0 mm 0.33 in8.4 mm
10:58 PM 71.9°F22.2°C 71.3°F21.8°C 98% Calm Calm -- 29.89 in1012.2 mb 0.01 in0.3 mm 0.00 in0.0 mm 0.33 in8.4 mm
11:00 PM 71.9°F22.2°C 71.3°F21.8°C 98% Calm Calm -- 29.88 in1011.9 mb 0.01 in0.3 mm 0.00 in0.0 mm 0.33 in8.4 mm
11:02 PM 71.9°F22.2°C 71.3°F21.8°C 98% Calm Calm -- 29.88 in1011.9 mb 0.01 in0.3 mm 0.00 in0.0 mm 0.33 in8.4 mm
11:04 PM 71.9°F22.2°C 71.3°F21.8°C 98% Calm Calm -- 29.88 in1011.9 mb 0.01 in0.3 mm 0.00 in0.0 mm 0.33 in8.4 mm
11:06 PM 71.9°F22.2°C 71.3°F21.8°C 98% Calm Calm -- 29.88 in1011.9 mb 0.01 in0.3 mm 0.00 in0.0 mm 0.33 in8.4 mm
11:08 PM 71.9°F22.2°C 71.3°F21.8°C 98% Calm Calm -- 29.88 in1011.9 mb 0.01 in0.3 mm 0.00 in0.0 mm 0.33 in8.4 mm
11:10 PM 71.9°F22.2°C 71.3°F21.8°C 98% Calm Calm -- 29.88 in1011.9 mb 0.01 in0.3 mm 0.00 in0.0 mm 0.33 in8.4 mm
11:12 PM 71.9°F22.2°C 71.3°F21.8°C 98% Calm Calm -- 29.88 in1011.9 mb 0.01 in0.3 mm 0.00 in0.0 mm 0.33 in8.4 mm
11:14 PM 71.9°F22.2°C 71.3°F21.8°C 98% Calm Calm -- 29.88 in1011.9 mb 0.01 in0.3 mm 0.00 in0.0 mm 0.33 in8.4 mm
11:16 PM 71.9°F22.2°C 71.3°F21.8°C 98% Calm Calm -- 29.88 in1011.9 mb 0.01 in0.3 mm 0.00 in0.0 mm 0.33 in8.4 mm
11:18 PM 71.9°F22.2°C 71.3°F21.8°C 98% Calm Calm -- 29.88 in1011.9 mb 0.01 in0.3 mm 0.00 in0.0 mm 0.33 in8.4 mm
11:20 PM 71.9°F22.2°C 71.3°F21.8°C 98% Calm Calm -- 29.88 in1011.9 mb 0.01 in0.3 mm 0.00 in0.0 mm 0.33 in8.4 mm
11:22 PM 71.9°F22.2°C 71.3°F21.8°C 98% Calm Calm -- 29.88 in1011.9 mb 0.01 in0.3 mm 0.00 in0.0 mm 0.33 in8.4 mm
11:24 PM 71.9°F22.2°C 71.3°F21.8°C 98% Calm Calm -- 29.88 in1011.9 mb 0.01 in0.3 mm 0.00 in0.0 mm 0.33 in8.4 mm
11:26 PM 72.0°F22.2°C 71.4°F21.9°C 98% Calm Calm -- 29.88 in1011.9 mb 0.01 in0.3 mm 0.00 in0.0 mm 0.33 in8.4 mm
11:28 PM 71.9°F22.2°C 71.3°F21.8°C 98% Calm Calm -- 29.88 in1011.9 mb 0.01 in0.3 mm 0.00 in0.0 mm 0.33 in8.4 mm
11:30 PM 71.9°F22.2°C 71.3°F21.8°C 98% Calm Calm -- 29.88 in1011.9 mb 0.01 in0.3 mm 0.00 in0.0 mm 0.33 in8.4 mm
11:34 PM 71.9°F22.2°C 71.3°F21.8°C 98% Calm Calm -- 29.88 in1011.9 mb 0.00 in0.0 mm 0.00 in0.0 mm 0.33 in8.4 mm
11:36 PM 71.9°F22.2°C 71.3°F21.8°C 98% Calm Calm -- 29.88 in1011.9 mb 0.00 in0.0 mm 0.00 in0.0 mm 0.33 in8.4 mm
11:38 PM 71.9°F22.2°C 71.3°F21.8°C 98% Calm Calm -- 29.88 in1011.9 mb 0.00 in0.0 mm 0.00 in0.0 mm 0.33 in8.4 mm
11:40 PM 71.9°F22.2°C 71.3°F21.8°C 98% Calm Calm -- 29.88 in1011.9 mb 0.00 in0.0 mm 0.00 in0.0 mm 0.33 in8.4 mm
11:42 PM 71.9°F22.2°C 71.3°F21.8°C 98% Calm Calm -- 29.88 in1011.9 mb 0.00 in0.0 mm 0.00 in0.0 mm 0.33 in8.4 mm
11:44 PM 71.9°F22.2°C 71.3°F21.8°C 98% Calm Calm -- 29.88 in1011.9 mb 0.00 in0.0 mm 0.00 in0.0 mm 0.33 in8.4 mm
11:46 PM 72.0°F22.2°C 71.4°F21.9°C 98% Calm Calm -- 29.88 in1011.9 mb 0.00 in0.0 mm 0.00 in0.0 mm 0.33 in8.4 mm
11:48 PM 71.9°F22.2°C 71.3°F21.8°C 98% Calm Calm -- 29.88 in1011.9 mb 0.00 in0.0 mm 0.00 in0.0 mm 0.33 in8.4 mm
11:50 PM 71.9°F22.2°C 71.3°F21.8°C 98% Calm Calm -- 29.88 in1011.9 mb 0.00 in0.0 mm 0.00 in0.0 mm 0.33 in8.4 mm
11:52 PM 71.9°F22.2°C 71.3°F21.8°C 98% Calm Calm -- 29.88 in1011.9 mb 0.00 in0.0 mm 0.00 in0.0 mm 0.33 in8.4 mm
11:54 PM 72.0°F22.2°C 71.4°F21.9°C 98% Calm Calm -- 29.88 in1011.9 mb 0.00 in0.0 mm 0.00 in0.0 mm 0.33 in8.4 mm
11:56 PM 72.0°F22.2°C 71.4°F21.9°C 98% Calm Calm -- 29.89 in1012.2 mb 0.00 in0.0 mm 0.00 in0.0 mm 0.33 in8.4 mm
11:58 PM 72.0°F22.2°C 71.4°F21.9°C 98% Calm Calm -- 29.88 in1011.9 mb 0.00 in0.0 mm 0.00 in0.0 mm 0.33 in8.4 mm